sensor_id;sensor_type;location;lat;lon;timestamp;P1;P2;P0
49064;PMS5003;34876;51.464;-0.150;2022-09-13T00:03:26;11;10;
49064;PMS5003;34876;51.464;-0.150;2022-09-13T00:05:56;7;7;
49064;PMS5003;34876;51.464;-0.150;2022-09-13T00:08:25;10;9;
49064;PMS5003;34876;51.464;-0.150;2022-09-13T00:10:54;8;6;
49064;PMS5003;34876;51.464;-0.150;2022-09-13T00:13:24;11;10;
49064;PMS5003;34876;51.464;-0.150;2022-09-13T00:15:53;9;9;
49064;PMS5003;34876;51.464;-0.150;2022-09-13T00:18:22;11;8;
49064;PMS5003;34876;51.464;-0.150;2022-09-13T00:20:51;10;8;
49064;PMS5003;34876;51.464;-0.150;2022-09-13T00:23:30;10;10;
49064;PMS5003;34876;51.464;-0.150;2022-09-13T00:26:07;9;8;
49064;PMS5003;34876;51.464;-0.150;2022-09-13T00:28:38;10;10;
49064;PMS5003;34876;51.464;-0.150;2022-09-13T00:31:08;9;8;
49064;PMS5003;34876;51.464;-0.150;2022-09-13T00:33:37;10;8;
49064;PMS5003;34876;51.464;-0.150;2022-09-13T00:36:07;10;9;
49064;PMS5003;34876;51.464;-0.150;2022-09-13T00:38:38;8;8;
49064;PMS5003;34876;51.464;-0.150;2022-09-13T00:41:09;7;7;
49064;PMS5003;34876;51.464;-0.150;2022-09-13T00:43:43;9;8;
49064;PMS5003;34876;51.464;-0.150;2022-09-13T00:46:16;8;7;
49064;PMS5003;34876;51.464;-0.150;2022-09-13T00:48:52;9;7;
49064;PMS5003;34876;51.464;-0.150;2022-09-13T00:51:26;8;8;
49064;PMS5003;34876;51.464;-0.150;2022-09-13T00:53:56;8;7;
49064;PMS5003;34876;51.464;-0.150;2022-09-13T00:56:27;9;9;
49064;PMS5003;34876;51.464;-0.150;2022-09-13T00:59:01;7;7;
49064;PMS5003;34876;51.464;-0.150;2022-09-13T01:01:35;10;10;
49064;PMS5003;34876;51.464;-0.150;2022-09-13T01:04:08;11;9;
49064;PMS5003;34876;51.464;-0.150;2022-09-13T01:06:40;7;6;
49064;PMS5003;34876;51.464;-0.150;2022-09-13T01:09:10;9;8;
49064;PMS5003;34876;51.464;-0.150;2022-09-13T01:11:43;8;7;
49064;PMS5003;34876;51.464;-0.150;2022-09-13T01:14:15;10;10;
49064;PMS5003;34876;51.464;-0.150;2022-09-13T01:16:46;8;8;
49064;PMS5003;34876;51.464;-0.150;2022-09-13T01:19:17;10;10;
49064;PMS5003;34876;51.464;-0.150;2022-09-13T01:21:52;7;7;
49064;PMS5003;34876;51.464;-0.150;2022-09-13T01:25:20;10;9;
49064;PMS5003;34876;51.464;-0.150;2022-09-13T01:28:07;8;8;
49064;PMS5003;34876;51.464;-0.150;2022-09-13T01:30:45;9;9;
49064;PMS5003;34876;51.464;-0.150;2022-09-13T01:33:25;8;8;
49064;PMS5003;34876;51.464;-0.150;2022-09-13T01:36:15;9;9;
49064;PMS5003;34876;51.464;-0.150;2022-09-13T01:38:57;9;9;
49064;PMS5003;34876;51.464;-0.150;2022-09-13T01:41:37;10;9;
49064;PMS5003;34876;51.464;-0.150;2022-09-13T01:44:20;9;9;
49064;PMS5003;34876;51.464;-0.150;2022-09-13T01:47:02;8;8;
49064;PMS5003;34876;51.464;-0.150;2022-09-13T01:49:42;8;8;
49064;PMS5003;34876;51.464;-0.150;2022-09-13T01:52:20;7;7;
49064;PMS5003;34876;51.464;-0.150;2022-09-13T01:54:59;8;7;
49064;PMS5003;34876;51.464;-0.150;2022-09-13T01:57:36;12;10;
49064;PMS5003;34876;51.464;-0.150;2022-09-13T02:00:10;9;8;
49064;PMS5003;34876;51.464;-0.150;2022-09-13T02:02:42;9;8;
49064;PMS5003;34876;51.464;-0.150;2022-09-13T02:05:17;8;8;
49064;PMS5003;34876;51.464;-0.150;2022-09-13T02:07:53;11;10;
49064;PMS5003;34876;51.464;-0.150;2022-09-13T02:10:25;11;9;
49064;PMS5003;34876;51.464;-0.150;2022-09-13T02:12:58;8;8;
49064;PMS5003;34876;51.464;-0.150;2022-09-13T02:15:33;8;8;
49064;PMS5003;34876;51.464;-0.150;2022-09-13T02:18:07;12;10;
49064;PMS5003;34876;51.464;-0.150;2022-09-13T02:20:39;7;7;
49064;PMS5003;34876;51.464;-0.150;2022-09-13T02:23:12;8;8;
49064;PMS5003;34876;51.464;-0.150;2022-09-13T02:25:44;9;9;
49064;PMS5003;34876;51.464;-0.150;2022-09-13T02:28:17;8;8;
49064;PMS5003;34876;51.464;-0.150;2022-09-13T02:30:51;9;9;
49064;PMS5003;34876;51.464;-0.150;2022-09-13T02:33:25;8;8;
49064;PMS5003;34876;51.464;-0.150;2022-09-13T02:35:59;8;8;
49064;PMS5003;34876;51.464;-0.150;2022-09-13T02:38:33;9;9;
49064;PMS5003;34876;51.464;-0.150;2022-09-13T02:41:12;8;8;
49064;PMS5003;34876;51.464;-0.150;2022-09-13T02:43:48;8;8;
49064;PMS5003;34876;51.464;-0.150;2022-09-13T02:46:24;11;11;
49064;PMS5003;34876;51.464;-0.150;2022-09-13T02:49:05;10;10;
49064;PMS5003;34876;51.464;-0.150;2022-09-13T02:51:42;9;7;
49064;PMS5003;34876;51.464;-0.150;2022-09-13T02:54:19;10;10;
49064;PMS5003;34876;51.464;-0.150;2022-09-13T02:56:55;10;10;
49064;PMS5003;34876;51.464;-0.150;2022-09-13T02:59:30;14;13;
49064;PMS5003;34876;51.464;-0.150;2022-09-13T03:02:00;10;10;
49064;PMS5003;34876;51.464;-0.150;2022-09-13T03:04:33;8;8;
49064;PMS5003;34876;51.464;-0.150;2022-09-13T03:07:05;9;8;
49064;PMS5003;34876;51.464;-0.150;2022-09-13T03:09:38;8;7;
49064;PMS5003;34876;51.464;-0.150;2022-09-13T03:12:18;10;9;
49064;PMS5003;34876;51.464;-0.150;2022-09-13T03:15:01;8;7;
49064;PMS5003;34876;51.464;-0.150;2022-09-13T03:17:44;8;8;
49064;PMS5003;34876;51.464;-0.150;2022-09-13T03:20:23;11;9;
49064;PMS5003;34876;51.464;-0.150;2022-09-13T03:23:00;10;10;
49064;PMS5003;34876;51.464;-0.150;2022-09-13T03:25:43;11;10;
49064;PMS5003;34876;51.464;-0.150;2022-09-13T03:28:29;9;8;
49064;PMS5003;34876;51.464;-0.150;2022-09-13T03:31:06;8;8;
49064;PMS5003;34876;51.464;-0.150;2022-09-13T03:33:41;8;8;
49064;PMS5003;34876;51.464;-0.150;2022-09-13T03:36:17;8;8;
49064;PMS5003;34876;51.464;-0.150;2022-09-13T03:38:53;9;9;
49064;PMS5003;34876;51.464;-0.150;2022-09-13T03:41:28;10;10;
49064;PMS5003;34876;51.464;-0.150;2022-09-13T03:44:02;9;9;
49064;PMS5003;34876;51.464;-0.150;2022-09-13T03:46:37;10;10;
49064;PMS5003;34876;51.464;-0.150;2022-09-13T03:49:11;8;6;
49064;PMS5003;34876;51.464;-0.150;2022-09-13T03:51:42;9;9;
49064;PMS5003;34876;51.464;-0.150;2022-09-13T03:54:15;8;8;
49064;PMS5003;34876;51.464;-0.150;2022-09-13T03:57:04;9;9;
49064;PMS5003;34876;51.464;-0.150;2022-09-13T03:59:35;8;8;
49064;PMS5003;34876;51.464;-0.150;2022-09-13T04:02:07;8;8;
49064;PMS5003;34876;51.464;-0.150;2022-09-13T04:04:36;10;10;
49064;PMS5003;34876;51.464;-0.150;2022-09-13T04:07:05;8;8;
49064;PMS5003;34876;51.464;-0.150;2022-09-13T04:09:35;9;8;
49064;PMS5003;34876;51.464;-0.150;2022-09-13T04:12:04;7;7;
49064;PMS5003;34876;51.464;-0.150;2022-09-13T04:14:34;8;8;
49064;PMS5003;34876;51.464;-0.150;2022-09-13T04:17:03;8;8;
49064;PMS5003;34876;51.464;-0.150;2022-09-13T04:19:32;8;8;
49064;PMS5003;34876;51.464;-0.150;2022-09-13T04:22:00;12;12;
49064;PMS5003;34876;51.464;-0.150;2022-09-13T04:24:30;8;8;
49064;PMS5003;34876;51.464;-0.150;2022-09-13T04:26:59;8;8;
49064;PMS5003;34876;51.464;-0.150;2022-09-13T04:29:29;11;11;
49064;PMS5003;34876;51.464;-0.150;2022-09-13T04:31:58;9;9;
49064;PMS5003;34876;51.464;-0.150;2022-09-13T04:34:27;9;9;
49064;PMS5003;34876;51.464;-0.150;2022-09-13T04:36:56;7;7;
49064;PMS5003;34876;51.464;-0.150;2022-09-13T04:39:25;10;9;
49064;PMS5003;34876;51.464;-0.150;2022-09-13T04:41:53;8;7;
49064;PMS5003;34876;51.464;-0.150;2022-09-13T04:44:22;9;9;
49064;PMS5003;34876;51.464;-0.150;2022-09-13T04:46:51;9;8;
49064;PMS5003;34876;51.464;-0.150;2022-09-13T04:49:20;10;8;
49064;PMS5003;34876;51.464;-0.150;2022-09-13T04:51:49;8;8;
49064;PMS5003;34876;51.464;-0.150;2022-09-13T04:54:18;6;6;
49064;PMS5003;34876;51.464;-0.150;2022-09-13T04:56:47;7;7;
49064;PMS5003;34876;51.464;-0.150;2022-09-13T04:59:15;8;8;
49064;PMS5003;34876;51.464;-0.150;2022-09-13T05:01:44;8;8;
49064;PMS5003;34876;51.464;-0.150;2022-09-13T05:04:13;9;9;
49064;PMS5003;34876;51.464;-0.150;2022-09-13T05:06:42;8;7;
49064;PMS5003;34876;51.464;-0.150;2022-09-13T05:09:12;10;7;
49064;PMS5003;34876;51.464;-0.150;2022-09-13T05:11:42;7;7;
49064;PMS5003;34876;51.464;-0.150;2022-09-13T05:14:11;8;8;
49064;PMS5003;34876;51.464;-0.150;2022-09-13T05:16:40;9;9;
49064;PMS5003;34876;51.464;-0.150;2022-09-13T05:19:10;5;5;
49064;PMS5003;34876;51.464;-0.150;2022-09-13T05:21:39;7;7;
49064;PMS5003;34876;51.464;-0.150;2022-09-13T05:24:09;7;7;
49064;PMS5003;34876;51.464;-0.150;2022-09-13T05:26:38;9;8;
49064;PMS5003;34876;51.464;-0.150;2022-09-13T05:29:07;7;7;
49064;PMS5003;34876;51.464;-0.150;2022-09-13T05:31:36;9;9;
49064;PMS5003;34876;51.464;-0.150;2022-09-13T05:34:08;11;8;
49064;PMS5003;34876;51.464;-0.150;2022-09-13T05:36:38;9;8;
49064;PMS5003;34876;51.464;-0.150;2022-09-13T05:39:09;8;6;
49064;PMS5003;34876;51.464;-0.150;2022-09-13T05:41:40;11;10;
49064;PMS5003;34876;51.464;-0.150;2022-09-13T05:44:09;10;8;
49064;PMS5003;34876;51.464;-0.150;2022-09-13T05:46:38;9;8;
49064;PMS5003;34876;51.464;-0.150;2022-09-13T05:49:07;9;9;
49064;PMS5003;34876;51.464;-0.150;2022-09-13T05:51:36;9;6;
49064;PMS5003;34876;51.464;-0.150;2022-09-13T05:54:05;8;8;
49064;PMS5003;34876;51.464;-0.150;2022-09-13T05:56:33;8;7;
49064;PMS5003;34876;51.464;-0.150;2022-09-13T05:59:02;6;6;
49064;PMS5003;34876;51.464;-0.150;2022-09-13T06:01:31;6;5;
49064;PMS5003;34876;51.464;-0.150;2022-09-13T06:04:01;6;6;
49064;PMS5003;34876;51.464;-0.150;2022-09-13T06:06:30;7;7;
49064;PMS5003;34876;51.464;-0.150;2022-09-13T06:08:58;8;8;
49064;PMS5003;34876;51.464;-0.150;2022-09-13T06:11:27;7;7;
49064;PMS5003;34876;51.464;-0.150;2022-09-13T06:13:56;7;7;
49064;PMS5003;34876;51.464;-0.150;2022-09-13T06:16:25;8;8;
49064;PMS5003;34876;51.464;-0.150;2022-09-13T06:18:53;5;5;
49064;PMS5003;34876;51.464;-0.150;2022-09-13T06:21:22;6;6;
49064;PMS5003;34876;51.464;-0.150;2022-09-13T06:23:52;6;6;
49064;PMS5003;34876;51.464;-0.150;2022-09-13T06:26:22;7;7;
49064;PMS5003;34876;51.464;-0.150;2022-09-13T06:28:53;8;8;
49064;PMS5003;34876;51.464;-0.150;2022-09-13T06:31:24;8;7;
49064;PMS5003;34876;51.464;-0.150;2022-09-13T06:33:54;7;6;
49064;PMS5003;34876;51.464;-0.150;2022-09-13T06:36:25;6;6;
49064;PMS5003;34876;51.464;-0.150;2022-09-13T06:38:54;5;4;
49064;PMS5003;34876;51.464;-0.150;2022-09-13T06:41:24;5;5;
49064;PMS5003;34876;51.464;-0.150;2022-09-13T06:43:53;10;10;
49064;PMS5003;34876;51.464;-0.150;2022-09-13T06:46:23;9;6;
49064;PMS5003;34876;51.464;-0.150;2022-09-13T06:48:54;8;6;
49064;PMS5003;34876;51.464;-0.150;2022-09-13T06:51:25;5;5;
49064;PMS5003;34876;51.464;-0.150;2022-09-13T06:53:55;7;7;
49064;PMS5003;34876;51.464;-0.150;2022-09-13T06:56:25;4;4;
49064;PMS5003;34876;51.464;-0.150;2022-09-13T06:58:56;8;7;
49064;PMS5003;34876;51.464;-0.150;2022-09-13T07:01:26;7;7;
49064;PMS5003;34876;51.464;-0.150;2022-09-13T07:03:58;7;6;
49064;PMS5003;34876;51.464;-0.150;2022-09-13T07:06:30;5;4;
49064;PMS5003;34876;51.464;-0.150;2022-09-13T07:09:02;9;9;
49064;PMS5003;34876;51.464;-0.150;2022-09-13T07:11:34;6;6;
49064;PMS5003;34876;51.464;-0.150;2022-09-13T07:14:04;6;6;
49064;PMS5003;34876;51.464;-0.150;2022-09-13T07:16:35;7;7;
49064;PMS5003;34876;51.464;-0.150;2022-09-13T07:19:06;7;7;
49064;PMS5003;34876;51.464;-0.150;2022-09-13T07:21:39;6;6;
49064;PMS5003;34876;51.464;-0.150;2022-09-13T07:24:08;8;8;
49064;PMS5003;34876;51.464;-0.150;2022-09-13T07:26:37;4;4;
49064;PMS5003;34876;51.464;-0.150;2022-09-13T07:29:07;6;4;
49064;PMS5003;34876;51.464;-0.150;2022-09-13T07:31:39;7;7;
49064;PMS5003;34876;51.464;-0.150;2022-09-13T07:34:11;8;6;
49064;PMS5003;34876;51.464;-0.150;2022-09-13T07:36:42;6;6;
49064;PMS5003;34876;51.464;-0.150;2022-09-13T07:39:11;5;5;
49064;PMS5003;34876;51.464;-0.150;2022-09-13T07:41:40;6;6;
49064;PMS5003;34876;51.464;-0.150;2022-09-13T07:44:10;9;6;
49064;PMS5003;34876;51.464;-0.150;2022-09-13T07:46:40;7;7;
49064;PMS5003;34876;51.464;-0.150;2022-09-13T07:49:09;5;5;
49064;PMS5003;34876;51.464;-0.150;2022-09-13T07:51:40;5;5;
49064;PMS5003;34876;51.464;-0.150;2022-09-13T07:54:11;5;5;
49064;PMS5003;34876;51.464;-0.150;2022-09-13T07:56:41;6;5;
49064;PMS5003;34876;51.464;-0.150;2022-09-13T07:59:11;5;5;
49064;PMS5003;34876;51.464;-0.150;2022-09-13T08:01:43;4;4;
49064;PMS5003;34876;51.464;-0.150;2022-09-13T08:04:13;6;6;
49064;PMS5003;34876;51.464;-0.150;2022-09-13T08:06:44;5;4;
49064;PMS5003;34876;51.464;-0.150;2022-09-13T08:09:13;8;7;
49064;PMS5003;34876;51.464;-0.150;2022-09-13T08:11:44;7;6;
49064;PMS5003;34876;51.464;-0.150;2022-09-13T08:14:15;7;7;
49064;PMS5003;34876;51.464;-0.150;2022-09-13T08:16:45;6;6;
49064;PMS5003;34876;51.464;-0.150;2022-09-13T08:19:15;5;5;
49064;PMS5003;34876;51.464;-0.150;2022-09-13T08:21:46;7;7;
49064;PMS5003;34876;51.464;-0.150;2022-09-13T08:24:15;6;6;
49064;PMS5003;34876;51.464;-0.150;2022-09-13T08:26:47;5;5;
49064;PMS5003;34876;51.464;-0.150;2022-09-13T08:29:16;6;5;
49064;PMS5003;34876;51.464;-0.150;2022-09-13T08:31:46;7;7;
49064;PMS5003;34876;51.464;-0.150;2022-09-13T08:34:15;5;5;
49064;PMS5003;34876;51.464;-0.150;2022-09-13T08:36:44;5;5;
49064;PMS5003;34876;51.464;-0.150;2022-09-13T08:39:13;7;6;
49064;PMS5003;34876;51.464;-0.150;2022-09-13T08:41:52;5;5;
49064;PMS5003;34876;51.464;-0.150;2022-09-13T08:44:29;6;6;
49064;PMS5003;34876;51.464;-0.150;2022-09-13T08:47:03;5;3;
49064;PMS5003;34876;51.464;-0.150;2022-09-13T08:49:43;7;7;
49064;PMS5003;34876;51.464;-0.150;2022-09-13T08:52:18;6;6;
49064;PMS5003;34876;51.464;-0.150;2022-09-13T08:54:56;5;5;
49064;PMS5003;34876;51.464;-0.150;2022-09-13T08:57:29;5;5;
49064;PMS5003;34876;51.464;-0.150;2022-09-13T09:00:09;6;4;
49064;PMS5003;34876;51.464;-0.150;2022-09-13T09:02:49;6;6;
49064;PMS5003;34876;51.464;-0.150;2022-09-13T09:05:28;4;4;
49064;PMS5003;34876;51.464;-0.150;2022-09-13T09:08:00;4;4;
49064;PMS5003;34876;51.464;-0.150;2022-09-13T09:10:32;6;6;
49064;PMS5003;34876;51.464;-0.150;2022-09-13T09:13:06;6;6;
49064;PMS5003;34876;51.464;-0.150;2022-09-13T09:15:42;6;6;
49064;PMS5003;34876;51.464;-0.150;2022-09-13T09:18:16;5;4;
49064;PMS5003;34876;51.464;-0.150;2022-09-13T09:20:49;5;5;
49064;PMS5003;34876;51.464;-0.150;2022-09-13T09:23:21;9;8;
49064;PMS5003;34876;51.464;-0.150;2022-09-13T09:25:56;5;5;
49064;PMS5003;34876;51.464;-0.150;2022-09-13T09:28:37;7;6;
49064;PMS5003;34876;51.464;-0.150;2022-09-13T09:31:07;4;4;
49064;PMS5003;34876;51.464;-0.150;2022-09-13T09:33:47;9;8;
49064;PMS5003;34876;51.464;-0.150;2022-09-13T09:36:29;5;5;
49064;PMS5003;34876;51.464;-0.150;2022-09-13T09:39:08;5;5;
49064;PMS5003;34876;51.464;-0.150;2022-09-13T09:41:40;5;5;
49064;PMS5003;34876;51.464;-0.150;2022-09-13T09:44:15;12;8;
49064;PMS5003;34876;51.464;-0.150;2022-09-13T09:46:47;5;5;
49064;PMS5003;34876;51.464;-0.150;2022-09-13T09:49:24;4;4;
49064;PMS5003;34876;51.464;-0.150;2022-09-13T09:51:59;9;9;
49064;PMS5003;34876;51.464;-0.150;2022-09-13T09:54:30;6;6;
49064;PMS5003;34876;51.464;-0.150;2022-09-13T09:57:01;8;8;
49064;PMS5003;34876;51.464;-0.150;2022-09-13T09:59:30;5;5;
49064;PMS5003;34876;51.464;-0.150;2022-09-13T10:02:00;8;8;
49064;PMS5003;34876;51.464;-0.150;2022-09-13T10:04:42;7;7;
49064;PMS5003;34876;51.464;-0.150;2022-09-13T10:07:23;15;10;
49064;PMS5003;34876;51.464;-0.150;2022-09-13T10:09:58;7;6;
49064;PMS5003;34876;51.464;-0.150;2022-09-13T10:12:31;9;9;
49064;PMS5003;34876;51.464;-0.150;2022-09-13T10:15:04;10;10;
49064;PMS5003;34876;51.464;-0.150;2022-09-13T10:17:42;10;10;
49064;PMS5003;34876;51.464;-0.150;2022-09-13T10:20:27;13;9;
49064;PMS5003;34876;51.464;-0.150;2022-09-13T10:23:28;9;9;
49064;PMS5003;34876;51.464;-0.150;2022-09-13T10:26:00;14;13;
49064;PMS5003;34876;51.464;-0.150;2022-09-13T10:28:32;6;6;
49064;PMS5003;34876;51.464;-0.150;2022-09-13T10:31:05;17;16;
49064;PMS5003;34876;51.464;-0.150;2022-09-13T10:33:36;13;12;
49064;PMS5003;34876;51.464;-0.150;2022-09-13T10:36:07;8;8;
49064;PMS5003;34876;51.464;-0.150;2022-09-13T10:38:45;12;11;
49064;PMS5003;34876;51.464;-0.150;2022-09-13T10:41:20;7;7;
49064;PMS5003;34876;51.464;-0.150;2022-09-13T10:43:55;10;10;
49064;PMS5003;34876;51.464;-0.150;2022-09-13T10:46:25;9;9;
49064;PMS5003;34876;51.464;-0.150;2022-09-13T10:48:56;15;15;
49064;PMS5003;34876;51.464;-0.150;2022-09-13T10:51:30;8;6;
49064;PMS5003;34876;51.464;-0.150;2022-09-13T10:54:14;11;11;
49064;PMS5003;34876;51.464;-0.150;2022-09-13T10:56:46;10;10;
49064;PMS5003;34876;51.464;-0.150;2022-09-13T10:59:21;12;12;
49064;PMS5003;34876;51.464;-0.150;2022-09-13T11:01:58;16;16;
49064;PMS5003;34876;51.464;-0.150;2022-09-13T11:04:55;14;12;
49064;PMS5003;34876;51.464;-0.150;2022-09-13T11:07:42;11;10;
49064;PMS5003;34876;51.464;-0.150;2022-09-13T11:10:24;15;15;
49064;PMS5003;34876;51.464;-0.150;2022-09-13T11:13:01;13;12;
49064;PMS5003;34876;51.464;-0.150;2022-09-13T11:15:41;10;10;
49064;PMS5003;34876;51.464;-0.150;2022-09-13T11:18:24;8;8;
49064;PMS5003;34876;51.464;-0.150;2022-09-13T11:21:09;14;14;
49064;PMS5003;34876;51.464;-0.150;2022-09-13T11:23:55;13;13;
49064;PMS5003;34876;51.464;-0.150;2022-09-13T11:26:43;15;15;
49064;PMS5003;34876;51.464;-0.150;2022-09-13T11:29:25;10;10;
49064;PMS5003;34876;51.464;-0.150;2022-09-13T11:32:10;13;13;
49064;PMS5003;34876;51.464;-0.150;2022-09-13T11:34:55;9;9;
49064;PMS5003;34876;51.464;-0.150;2022-09-13T11:37:42;13;11;
49064;PMS5003;34876;51.464;-0.150;2022-09-13T11:40:22;11;10;
49064;PMS5003;34876;51.464;-0.150;2022-09-13T11:43:04;13;13;
49064;PMS5003;34876;51.464;-0.150;2022-09-13T11:45:47;27;25;
49064;PMS5003;34876;51.464;-0.150;2022-09-13T11:49:30;18;17;
49064;PMS5003;34876;51.464;-0.150;2022-09-13T11:52:14;11;11;
49064;PMS5003;34876;51.464;-0.150;2022-09-13T11:54:58;18;14;
49064;PMS5003;34876;51.464;-0.150;2022-09-13T11:57:36;14;12;
49064;PMS5003;34876;51.464;-0.150;2022-09-13T12:00:14;13;13;
49064;PMS5003;34876;51.464;-0.150;2022-09-13T12:02:49;12;10;
49064;PMS5003;34876;51.464;-0.150;2022-09-13T12:05:27;19;16;
49064;PMS5003;34876;51.464;-0.150;2022-09-13T12:08:01;15;14;
49064;PMS5003;34876;51.464;-0.150;2022-09-13T12:10:36;18;18;
49064;PMS5003;34876;51.464;-0.150;2022-09-13T12:13:13;16;15;
49064;PMS5003;34876;51.464;-0.150;2022-09-13T12:15:45;16;12;
49064;PMS5003;34876;51.464;-0.150;2022-09-13T12:18:18;13;12;
49064;PMS5003;34876;51.464;-0.150;2022-09-13T12:20:52;13;13;
49064;PMS5003;34876;51.464;-0.150;2022-09-13T12:23:27;16;15;
49064;PMS5003;34876;51.464;-0.150;2022-09-13T12:26:01;13;13;
49064;PMS5003;34876;51.464;-0.150;2022-09-13T12:28:36;14;14;
49064;PMS5003;34876;51.464;-0.150;2022-09-13T12:31:10;13;12;
49064;PMS5003;34876;51.464;-0.150;2022-09-13T12:33:43;14;13;
49064;PMS5003;34876;51.464;-0.150;2022-09-13T12:36:31;15;15;
49064;PMS5003;34876;51.464;-0.150;2022-09-13T12:39:19;12;12;
49064;PMS5003;34876;51.464;-0.150;2022-09-13T12:42:13;15;13;
49064;PMS5003;34876;51.464;-0.150;2022-09-13T12:44:59;15;14;
49064;PMS5003;34876;51.464;-0.150;2022-09-13T12:47:45;18;16;
49064;PMS5003;34876;51.464;-0.150;2022-09-13T12:50:29;13;13;
49064;PMS5003;34876;51.464;-0.150;2022-09-13T12:53:12;18;15;
49064;PMS5003;34876;51.464;-0.150;2022-09-13T12:55:59;16;14;
49064;PMS5003;34876;51.464;-0.150;2022-09-13T12:58:39;17;17;
49064;PMS5003;34876;51.464;-0.150;2022-09-13T13:01:21;14;13;
49064;PMS5003;34876;51.464;-0.150;2022-09-13T13:03:53;13;13;
49064;PMS5003;34876;51.464;-0.150;2022-09-13T13:06:28;13;13;
49064;PMS5003;34876;51.464;-0.150;2022-09-13T13:09:02;14;14;
49064;PMS5003;34876;51.464;-0.150;2022-09-13T13:11:42;13;13;
49064;PMS5003;34876;51.464;-0.150;2022-09-13T13:16:27;19;18;
49064;PMS5003;34876;51.464;-0.150;2022-09-13T13:18:58;12;12;
49064;PMS5003;34876;51.464;-0.150;2022-09-13T13:21:30;13;13;
49064;PMS5003;34876;51.464;-0.150;2022-09-13T13:26:42;14;13;
49064;PMS5003;34876;51.464;-0.150;2022-09-13T13:29:14;13;12;
49064;PMS5003;34876;51.464;-0.150;2022-09-13T13:31:45;15;15;
49064;PMS5003;34876;51.464;-0.150;2022-09-13T13:34:40;17;14;
49064;PMS5003;34876;51.464;-0.150;2022-09-13T13:37:27;14;14;
49064;PMS5003;34876;51.464;-0.150;2022-09-13T13:40:10;13;13;
49064;PMS5003;34876;51.464;-0.150;2022-09-13T13:42:47;14;14;
49064;PMS5003;34876;51.464;-0.150;2022-09-13T13:45:19;13;13;
49064;PMS5003;34876;51.464;-0.150;2022-09-13T13:47:53;13;13;
49064;PMS5003;34876;51.464;-0.150;2022-09-13T13:50:33;13;11;
49064;PMS5003;34876;51.464;-0.150;2022-09-13T13:53:39;18;17;
49064;PMS5003;34876;51.464;-0.150;2022-09-13T13:56:18;14;11;
49064;PMS5003;34876;51.464;-0.150;2022-09-13T13:58:53;12;12;
49064;PMS5003;34876;51.464;-0.150;2022-09-13T14:01:27;18;16;
49064;PMS5003;34876;51.464;-0.150;2022-09-13T14:05:06;17;13;
49064;PMS5003;34876;51.464;-0.150;2022-09-13T14:07:49;14;12;
49064;PMS5003;34876;51.464;-0.150;2022-09-13T14:10:32;14;14;
49064;PMS5003;34876;51.464;-0.150;2022-09-13T14:13:17;14;12;
49064;PMS5003;34876;51.464;-0.150;2022-09-13T14:16:03;13;13;
49064;PMS5003;34876;51.464;-0.150;2022-09-13T14:18:45;12;12;
49064;PMS5003;34876;51.464;-0.150;2022-09-13T14:22:24;13;12;
49064;PMS5003;34876;51.464;-0.150;2022-09-13T14:24:54;10;10;
49064;PMS5003;34876;51.464;-0.150;2022-09-13T14:27:25;12;11;
49064;PMS5003;34876;51.464;-0.150;2022-09-13T14:29:58;12;10;
49064;PMS5003;34876;51.464;-0.150;2022-09-13T14:32:29;13;13;
49064;PMS5003;34876;51.464;-0.150;2022-09-13T14:35:22;14;13;
49064;PMS5003;34876;51.464;-0.150;2022-09-13T14:37:54;12;11;
49064;PMS5003;34876;51.464;-0.150;2022-09-13T14:40:24;13;13;
49064;PMS5003;34876;51.464;-0.150;2022-09-13T14:42:55;12;12;
49064;PMS5003;34876;51.464;-0.150;2022-09-13T14:45:25;9;9;
49064;PMS5003;34876;51.464;-0.150;2022-09-13T14:47:56;9;9;
49064;PMS5003;34876;51.464;-0.150;2022-09-13T14:50:31;10;10;
49064;PMS5003;34876;51.464;-0.150;2022-09-13T14:53:02;12;11;
49064;PMS5003;34876;51.464;-0.150;2022-09-13T14:55:34;8;8;
49064;PMS5003;34876;51.464;-0.150;2022-09-13T14:58:07;11;9;
49064;PMS5003;34876;51.464;-0.150;2022-09-13T15:00:45;11;11;
49064;PMS5003;34876;51.464;-0.150;2022-09-13T15:03:19;15;15;
49064;PMS5003;34876;51.464;-0.150;2022-09-13T15:05:50;9;9;
49064;PMS5003;34876;51.464;-0.150;2022-09-13T15:08:54;9;9;
49064;PMS5003;34876;51.464;-0.150;2022-09-13T15:11:27;9;9;
49064;PMS5003;34876;51.464;-0.150;2022-09-13T15:14:00;9;9;
49064;PMS5003;34876;51.464;-0.150;2022-09-13T15:16:47;11;11;
49064;PMS5003;34876;51.464;-0.150;2022-09-13T15:19:26;11;11;
49064;PMS5003;34876;51.464;-0.150;2022-09-13T15:22:05;11;11;
49064;PMS5003;34876;51.464;-0.150;2022-09-13T15:24:42;13;12;
49064;PMS5003;34876;51.464;-0.150;2022-09-13T15:27:18;11;10;
49064;PMS5003;34876;51.464;-0.150;2022-09-13T15:29:50;10;10;
49064;PMS5003;34876;51.464;-0.150;2022-09-13T15:32:21;9;9;
49064;PMS5003;34876;51.464;-0.150;2022-09-13T15:34:57;9;8;
49064;PMS5003;34876;51.464;-0.150;2022-09-13T15:37:31;11;10;
49064;PMS5003;34876;51.464;-0.150;2022-09-13T15:40:12;9;8;
49064;PMS5003;34876;51.464;-0.150;2022-09-13T15:42:44;7;6;
49064;PMS5003;34876;51.464;-0.150;2022-09-13T15:45:15;12;10;
49064;PMS5003;34876;51.464;-0.150;2022-09-13T15:47:45;8;8;
49064;PMS5003;34876;51.464;-0.150;2022-09-13T15:50:23;8;8;
49064;PMS5003;34876;51.464;-0.150;2022-09-13T15:52:54;10;10;
49064;PMS5003;34876;51.464;-0.150;2022-09-13T15:55:23;10;9;
49064;PMS5003;34876;51.464;-0.150;2022-09-13T15:57:53;9;9;
49064;PMS5003;34876;51.464;-0.150;2022-09-13T16:00:23;8;8;
49064;PMS5003;34876;51.464;-0.150;2022-09-13T16:02:54;8;8;
49064;PMS5003;34876;51.464;-0.150;2022-09-13T16:05:22;8;8;
49064;PMS5003;34876;51.464;-0.150;2022-09-13T16:07:51;11;9;
49064;PMS5003;34876;51.464;-0.150;2022-09-13T16:10:21;9;9;
49064;PMS5003;34876;51.464;-0.150;2022-09-13T16:12:50;6;6;
49064;PMS5003;34876;51.464;-0.150;2022-09-13T16:15:22;7;7;
49064;PMS5003;34876;51.464;-0.150;2022-09-13T16:17:52;8;8;
49064;PMS5003;34876;51.464;-0.150;2022-09-13T16:20:22;7;7;
49064;PMS5003;34876;51.464;-0.150;2022-09-13T16:22:51;9;8;
49064;PMS5003;34876;51.464;-0.150;2022-09-13T16:25:20;6;6;
49064;PMS5003;34876;51.464;-0.150;2022-09-13T16:27:49;7;7;
49064;PMS5003;34876;51.464;-0.150;2022-09-13T16:30:19;8;8;
49064;PMS5003;34876;51.464;-0.150;2022-09-13T16:32:49;9;9;
49064;PMS5003;34876;51.464;-0.150;2022-09-13T16:35:18;12;12;
49064;PMS5003;34876;51.464;-0.150;2022-09-13T16:37:47;11;11;
49064;PMS5003;34876;51.464;-0.150;2022-09-13T16:40:16;8;8;
49064;PMS5003;34876;51.464;-0.150;2022-09-13T16:42:46;8;8;
49064;PMS5003;34876;51.464;-0.150;2022-09-13T16:45:15;12;9;
49064;PMS5003;34876;51.464;-0.150;2022-09-13T16:47:44;7;7;
49064;PMS5003;34876;51.464;-0.150;2022-09-13T16:50:13;6;6;
49064;PMS5003;34876;51.464;-0.150;2022-09-13T16:52:43;7;7;
49064;PMS5003;34876;51.464;-0.150;2022-09-13T16:55:12;9;7;
49064;PMS5003;34876;51.464;-0.150;2022-09-13T16:57:42;12;8;
49064;PMS5003;34876;51.464;-0.150;2022-09-13T17:00:13;6;6;
49064;PMS5003;34876;51.464;-0.150;2022-09-13T17:02:43;9;9;
49064;PMS5003;34876;51.464;-0.150;2022-09-13T17:05:12;10;7;
49064;PMS5003;34876;51.464;-0.150;2022-09-13T17:07:40;8;8;
49064;PMS5003;34876;51.464;-0.150;2022-09-13T17:10:10;8;6;
49064;PMS5003;34876;51.464;-0.150;2022-09-13T17:12:39;8;6;
49064;PMS5003;34876;51.464;-0.150;2022-09-13T17:15:08;6;5;
49064;PMS5003;34876;51.464;-0.150;2022-09-13T17:17:38;7;7;